• Join FlightAware (Why Join?)
  • Login
  • US Flag 
10:23AM EDT


 

Airport Tracker/Info


-or-


 

Live Flight TrackerFlight Track Log ✈ N561EJ ✈ 24-Apr-2013 ✈ KJAN - KMOB

Flight Track Log - Related Links

Times and Time Zones

All times are in EDT time to prevent confusion due to time zone crossing. See the N561EJ flight status page for this flight to view local times or setup timezone preferences in your user account.

Time Position Orientation Groundspeed Altitude Reporting Facility
EDT Latitude Longitude Course Direction KTS MPH feet Rate Location/Type
08:52PM 32.3647 -90.0622 132° Southeast 205 236 3,700  Level Memphis Center
08:53PM 32.3289 -89.9983 124° Southeast 187 215 6,100 2,580 Climbing Memphis Center
08:54PM 32.2767 -89.9397 136° Southeast 211 243 8,900 2,400 Climbing Memphis Center
08:55PM 32.2200 -89.8711 134° Southeast 252 290 10,900 1,800 Climbing Memphis Center
08:56PM 32.1550 -89.7931 135° Southeast 299 344 12,500 1,680 Climbing Memphis Center
08:57PM 31.9971 -89.7131 132° Southeast  Level Estimated
08:57PM 32.0878 -89.7050 132° Southeast 334 384 14,300  Level Memphis Center
08:58PM 32.0078 -89.6053 133° Southeast 369 425 15,000 300 Climbing Memphis Center
08:59PM 31.9383 -89.5178 133° Southeast 375 432 15,000  Level Memphis Center
09:00PM 31.8711 -89.4381 135° Southeast 371 427 15,000  Level Houston Center
09:01PM 31.7994 -89.3486 133° Southeast 373 429 15,000 -60 Level Houston Center
09:02PM 31.7272 -89.2594 134° Southeast 376 433 14,900  Descending Houston Center
09:03PM 31.6544 -89.1722 134° Southeast 376 433 15,000  Climbing Houston Center
09:04PM 31.5836 -89.0839 133° Southeast 373 429 15,000 -60 Level Houston Center
09:05PM 31.5108 -88.9944 134° Southeast 377 434 14,900  Descending Houston Center
09:06PM 31.4394 -88.9067 134° Southeast 374 430 15,000  Climbing Houston Center
09:07PM 31.3669 -88.8186 134° Southeast 376 433 15,000 -720 Level Houston Center
09:08PM 31.2806 -88.7131 134° Southeast 375 432 13,600 -1,680 Descending Houston Center
09:09PM 31.2136 -88.6333 134° Southeast 355 409 11,600 -1,920 Descending Houston Center
09:10PM 31.1386 -88.5817 149° Southeast 321 369 9,700 -1,860 Descending Houston Center
09:11PM 31.0686 -88.5331 149° Southeast 302 348 7,900 -1,860 Descending Houston Center
09:12PM 31.0050 -88.4836 146° Southeast 284 327 6,000 -2,040 Descending Houston Center
09:13PM 30.9414 -88.4392 149° Southeast 274 315 3,800 -1,980 Descending Houston Center
09:14PM 30.8717 -88.3867 147° Southeast 260 299 2,000 -960 Descending Houston Center
09:15PM 30.8208 -88.3531 150° Southeast 232 267 1,900 -120 Descending Houston Center
09:16PM 30.7869 -88.3239 144° Southeast 183 211 1,800 -180 Descending Houston Center
09:17PM 30.7581 -88.3000 145° Southeast 151 174 1,600 -420 Descending Houston Center
09:18PM 30.7322 -88.2781 144° Southeast 130 150 1,000 -600 Descending Houston Center
09:19PM 30.7075 -88.2567 143° Southeast 120 138 400 -600 Descending Houston Center